createdAt,value
2022-07-29T00:00:34.936Z,101566.56
2022-07-29T00:02:58.790Z,101564.84
2022-07-29T00:05:22.579Z,101573.56
2022-07-29T00:07:46.303Z,101568.56
2022-07-29T00:10:10.866Z,101573.28
2022-07-29T00:12:34.740Z,101573.84
2022-07-29T00:14:59.997Z,101572.72
2022-07-29T00:17:24.113Z,101582.28
2022-07-29T00:19:47.819Z,101568.41
2022-07-29T00:22:11.645Z,101575.56
2022-07-29T00:24:35.481Z,101573.44
2022-07-29T00:26:59.240Z,101568.44
2022-07-29T00:29:38.392Z,101570.41
2022-07-29T00:32:03.838Z,101568.16
2022-07-29T00:34:45.401Z,101558.59
2022-07-29T00:37:09.220Z,101550.59
2022-07-29T00:39:32.923Z,101555.44
2022-07-29T00:41:56.643Z,101551.44
2022-07-29T00:44:20.324Z,101552.88
2022-07-29T00:46:44.330Z,101552.88
2022-07-29T00:49:09.979Z,101547.59
2022-07-29T00:51:34.484Z,101554.16
2022-07-29T00:53:58.502Z,101550.03
2022-07-29T00:56:22.356Z,101550.13
2022-07-29T00:58:47.448Z,101562.13
2022-07-29T01:01:11.198Z,101553.72
2022-07-29T01:03:34.891Z,101546.31
2022-07-29T01:06:00.514Z,101548.56
2022-07-29T01:08:25.513Z,101554.44
2022-07-29T01:10:50.348Z,101544.31
2022-07-29T01:13:14.677Z,101554.97
2022-07-29T01:15:49.180Z,101547.72
2022-07-29T01:18:22.065Z,101539.44
2022-07-29T01:21:23.522Z,101539.28
2022-07-29T01:24:10.001Z,101538.44
2022-07-29T01:26:45.284Z,101536.44
2022-07-29T01:29:19.684Z,101524.91
2022-07-29T01:31:59.578Z,101523.19
2022-07-29T01:34:32.108Z,101518.03
2022-07-29T01:37:06.137Z,101517.56
2022-07-29T01:39:36.131Z,101512.09
2022-07-29T01:42:08.111Z,101509.19
2022-07-29T01:44:42.425Z,101502.16
2022-07-29T01:47:14.076Z,101492.63
2022-07-29T01:49:43.604Z,101487.47
2022-07-29T01:52:13.790Z,101473.78
2022-07-29T01:54:47.689Z,101471.63
2022-07-29T01:57:14.509Z,101466.53
2022-07-29T01:59:41.000Z,101466.78
2022-07-29T02:02:09.388Z,101460.38
2022-07-29T02:04:36.053Z,101467.44
2022-07-29T02:07:04.257Z,101458.06
2022-07-29T02:09:29.258Z,101451.50
2022-07-29T02:11:56.431Z,101451.09
2022-07-29T02:14:21.744Z,101451.53
2022-07-29T02:16:47.874Z,101453.22
2022-07-29T02:19:13.081Z,101460.94
2022-07-29T02:21:38.193Z,101464.91
2022-07-29T02:24:04.965Z,101464.47
2022-07-29T02:26:30.320Z,101468.19
2022-07-29T02:28:57.961Z,101470.31
2022-07-29T02:31:28.959Z,101470.63
2022-07-29T02:33:55.830Z,101481.56
2022-07-29T02:36:20.157Z,101476.72
2022-07-29T02:38:54.527Z,101473.44
2022-07-29T02:41:21.619Z,101467.75
2022-07-29T02:43:47.972Z,101471.88
2022-07-29T02:46:29.104Z,101469.88
2022-07-29T02:49:03.697Z,101474.25
2022-07-29T02:51:42.580Z,101478.72
2022-07-29T02:54:11.580Z,101479.00
2022-07-29T02:56:38.691Z,101473.66
2022-07-29T02:59:08.548Z,101482.09
2022-07-29T03:01:35.332Z,101478.84
2022-07-29T03:04:05.951Z,101474.88
2022-07-29T03:06:38.188Z,101475.44
2022-07-29T03:09:06.741Z,101464.72
2022-07-29T03:11:46.396Z,101474.47
2022-07-29T03:14:14.593Z,101467.72
2022-07-29T03:16:41.254Z,101465.88
2022-07-29T03:19:07.297Z,101470.63
2022-07-29T03:21:31.156Z,101458.66
2022-07-29T03:23:54.924Z,101468.34
2022-07-29T03:26:18.628Z,101456.78
2022-07-29T03:28:42.392Z,101457.53
2022-07-29T03:31:06.341Z,101458.25
2022-07-29T03:33:32.671Z,101457.69
2022-07-29T03:35:57.833Z,101454.69
2022-07-29T03:38:23.124Z,101461.38
2022-07-29T03:40:55.620Z,101453.56
2022-07-29T03:43:21.274Z,101449.53
2022-07-29T03:45:49.880Z,101451.22
2022-07-29T03:48:17.873Z,101435.28
2022-07-29T03:50:41.976Z,101434.72
2022-07-29T03:53:07.541Z,101440.97
2022-07-29T03:55:36.176Z,101438.00
2022-07-29T03:58:00.542Z,101440.44
2022-07-29T04:00:26.332Z,101435.59
2022-07-29T04:02:50.418Z,101434.44
2022-07-29T04:05:15.181Z,101441.28
2022-07-29T04:07:39.001Z,101439.53
2022-07-29T04:10:04.148Z,101441.41
2022-07-29T04:12:27.857Z,101448.38
2022-07-29T04:14:51.583Z,101450.13
2022-07-29T04:17:15.344Z,101451.38
2022-07-29T04:19:39.026Z,101443.88
2022-07-29T04:22:03.573Z,101448.41
2022-07-29T04:24:27.297Z,101459.22
2022-07-29T04:26:52.470Z,101464.66
2022-07-29T04:29:16.807Z,101464.25
2022-07-29T04:31:40.612Z,101462.69
2022-07-29T04:34:04.340Z,101462.94
2022-07-29T04:36:29.437Z,101466.09
2022-07-29T04:38:53.623Z,101461.28
2022-07-29T04:41:17.396Z,101460.13
2022-07-29T04:43:45.959Z,101457.72
2022-07-29T04:46:09.936Z,101455.88
2022-07-29T04:48:33.648Z,101453.19
2022-07-29T04:50:57.777Z,101456.13
2022-07-29T04:53:22.300Z,101458.16
2022-07-29T04:55:46.376Z,101460.88
2022-07-29T04:58:10.205Z,101467.88
2022-07-29T05:00:35.654Z,101457.75
2022-07-29T05:02:59.485Z,101463.44
2022-07-29T05:05:23.324Z,101463.31
2022-07-29T05:07:47.105Z,101457.31
2022-07-29T05:10:12.792Z,101455.41
2022-07-29T05:12:36.548Z,101455.88
2022-07-29T05:15:00.480Z,101456.38
2022-07-29T05:17:25.693Z,101460.69
2022-07-29T05:19:49.472Z,101463.00
2022-07-29T05:22:13.175Z,101451.69
2022-07-29T05:24:36.881Z,101454.78
2022-07-29T05:27:00.619Z,101450.03
2022-07-29T05:29:44.028Z,101449.56
2022-07-29T05:32:08.497Z,101449.03
2022-07-29T05:34:33.650Z,101444.00
2022-07-29T05:36:57.510Z,101449.47
2022-07-29T05:39:21.573Z,101451.59
2022-07-29T05:41:50.054Z,101450.78
2022-07-29T05:44:15.858Z,101446.03
2022-07-29T05:46:39.881Z,101444.91
2022-07-29T05:49:03.965Z,101445.00
2022-07-29T05:51:29.296Z,101440.78
2022-07-29T05:53:53.061Z,101445.91
2022-07-29T05:56:16.865Z,101455.31
2022-07-29T05:58:40.601Z,101455.78
2022-07-29T06:01:04.619Z,101452.53
2022-07-29T06:03:28.571Z,101450.44
2022-07-29T06:05:52.265Z,101455.56
2022-07-29T06:08:17.484Z,101454.78
2022-07-29T06:10:41.241Z,101457.50
2022-07-29T06:13:05.150Z,101460.06
2022-07-29T06:15:29.056Z,101461.75
2022-07-29T06:18:00.853Z,101454.78
2022-07-29T06:20:27.172Z,101455.91
2022-07-29T06:22:51.151Z,101446.22
2022-07-29T06:25:17.340Z,101447.81
2022-07-29T06:27:41.059Z,101455.06
2022-07-29T06:30:07.704Z,101449.28
2022-07-29T06:32:32.261Z,101452.44
2022-07-29T06:35:11.888Z,101447.81
2022-07-29T06:37:39.741Z,101450.53
2022-07-29T06:40:21.570Z,101450.72
2022-07-29T06:42:47.012Z,101447.72
2022-07-29T06:45:11.945Z,101446.31
2022-07-29T06:47:35.676Z,101452.44
2022-07-29T06:49:59.472Z,101447.16
2022-07-29T06:52:23.219Z,101439.31
2022-07-29T06:54:49.106Z,101448.22
2022-07-29T06:57:13.099Z,101450.09
2022-07-29T06:59:38.252Z,101447.75
2022-07-29T07:02:02.047Z,101451.50
2022-07-29T07:04:25.845Z,101458.72
2022-07-29T07:06:49.552Z,101457.72
2022-07-29T07:09:13.241Z,101456.31
2022-07-29T07:11:37.107Z,101457.69
2022-07-29T07:14:03.974Z,101461.75
2022-07-29T07:16:39.730Z,101461.72
2022-07-29T07:19:03.664Z,101453.53
2022-07-29T07:21:28.756Z,101455.34
2022-07-29T07:23:54.476Z,101453.38
2022-07-29T07:26:18.266Z,101457.50
2022-07-29T07:28:41.979Z,101456.69
2022-07-29T07:31:05.753Z,101450.38
2022-07-29T07:33:31.046Z,101452.38
2022-07-29T07:35:54.884Z,101449.97
2022-07-29T07:38:18.642Z,101444.50
2022-07-29T07:40:43.143Z,101447.28
2022-07-29T07:43:07.021Z,101445.22
2022-07-29T07:45:31.191Z,101454.44
2022-07-29T07:47:54.946Z,101437.59
2022-07-29T07:50:20.136Z,101438.28
2022-07-29T07:52:53.272Z,101441.50
2022-07-29T07:55:17.740Z,101433.09
2022-07-29T07:57:41.514Z,101439.66
2022-07-29T08:00:06.669Z,101435.22
2022-07-29T08:02:36.010Z,101435.47
2022-07-29T08:05:00.572Z,101435.53
2022-07-29T08:07:25.675Z,101427.25
2022-07-29T08:09:49.463Z,101427.28
2022-07-29T08:12:13.209Z,101429.03
2022-07-29T08:14:37.008Z,101429.88
2022-07-29T08:17:00.874Z,101423.22
2022-07-29T08:19:24.647Z,101423.88
2022-07-29T08:21:48.804Z,101413.06
2022-07-29T08:24:31.765Z,101409.63
2022-07-29T08:26:55.556Z,101410.16
2022-07-29T08:29:20.188Z,101410.28
2022-07-29T08:31:44.078Z,101404.88
2022-07-29T08:34:09.357Z,101414.84
2022-07-29T08:36:33.181Z,101399.88
2022-07-29T08:38:57.045Z,101405.59
2022-07-29T08:41:23.309Z,101411.56
2022-07-29T08:43:47.008Z,101410.31
2022-07-29T08:46:10.997Z,101398.97
2022-07-29T08:48:35.988Z,101390.38
2022-07-29T08:51:00.204Z,101399.50
2022-07-29T08:53:24.504Z,101390.66
2022-07-29T08:55:51.650Z,101398.94
2022-07-29T08:58:18.213Z,101396.75
2022-07-29T09:00:51.435Z,101397.69
2022-07-29T09:03:23.445Z,101386.81
2022-07-29T09:05:48.422Z,101387.50
2022-07-29T09:08:12.275Z,101392.97
2022-07-29T09:10:37.920Z,101384.34
2022-07-29T09:13:01.658Z,101392.59
2022-07-29T09:15:27.082Z,101379.94
2022-07-29T09:17:52.013Z,101398.56
2022-07-29T09:20:18.824Z,101392.63
2022-07-29T09:22:42.912Z,101392.44
2022-07-29T09:25:08.196Z,101390.34
2022-07-29T09:27:31.952Z,101389.75
2022-07-29T09:30:00.424Z,101390.59
2022-07-29T09:32:25.836Z,101380.22
2022-07-29T09:34:49.639Z,101385.50
2022-07-29T09:37:13.443Z,101378.13
2022-07-29T09:39:46.516Z,101392.50
2022-07-29T09:42:10.380Z,101378.09
2022-07-29T09:44:49.588Z,101372.16
2022-07-29T09:47:13.495Z,101382.94
2022-07-29T09:49:53.848Z,101374.91
2022-07-29T09:52:17.813Z,101372.34
2022-07-29T09:54:41.520Z,101372.34
2022-07-29T09:57:07.624Z,101364.19
2022-07-29T09:59:31.373Z,101371.13
2022-07-29T10:01:55.737Z,101365.03
2022-07-29T10:04:20.419Z,101366.72
2022-07-29T10:07:04.868Z,101368.59
2022-07-29T10:09:29.794Z,101365.72
2022-07-29T10:12:11.945Z,101362.41
2022-07-29T10:14:36.276Z,101368.53
2022-07-29T10:17:02.309Z,101367.75
2022-07-29T10:19:27.047Z,101367.50
2022-07-29T10:21:54.973Z,101362.19
2022-07-29T10:24:23.408Z,101358.25
2022-07-29T10:26:48.368Z,101359.78
2022-07-29T10:29:12.163Z,101359.34
2022-07-29T10:31:51.148Z,101356.22
2022-07-29T10:34:23.455Z,101353.97
2022-07-29T10:36:59.266Z,101357.38
2022-07-29T10:39:44.515Z,101347.72
2022-07-29T10:42:20.352Z,101342.38
2022-07-29T10:44:58.036Z,101352.38
2022-07-29T10:47:25.295Z,101343.59
2022-07-29T10:50:01.368Z,101342.28
2022-07-29T10:52:30.326Z,101343.84
2022-07-29T10:54:56.478Z,101353.28
2022-07-29T10:57:53.972Z,101348.47
2022-07-29T11:00:30.559Z,101347.47
2022-07-29T11:02:56.557Z,101347.31
2022-07-29T11:05:22.499Z,101348.25
2022-07-29T11:08:27.846Z,101352.56
2022-07-29T11:11:38.040Z,101345.94
2022-07-29T11:14:02.224Z,101342.75
2022-07-29T11:16:26.726Z,101338.34
2022-07-29T11:19:26.682Z,101341.00
2022-07-29T11:21:58.395Z,101348.59
2022-07-29T11:24:28.949Z,101338.91
2022-07-29T11:27:18.344Z,101342.88
2022-07-29T11:29:54.042Z,101344.56
2022-07-29T11:32:22.534Z,101334.72
2022-07-29T11:34:46.988Z,101344.28
2022-07-29T11:37:27.707Z,101334.16
2022-07-29T11:40:14.591Z,101332.03
2022-07-29T11:42:53.856Z,101325.34
2022-07-29T11:45:42.466Z,101328.13
2022-07-29T11:48:30.009Z,101327.88
2022-07-29T11:50:54.234Z,101325.75
2022-07-29T11:53:18.033Z,101324.88
2022-07-29T11:55:51.356Z,101315.25
2022-07-29T11:58:17.305Z,101305.97
2022-07-29T12:00:43.648Z,101305.94
2022-07-29T12:03:09.635Z,101312.44
2022-07-29T12:05:51.678Z,101300.34
2022-07-29T12:08:20.191Z,101300.44
2022-07-29T12:10:45.342Z,101303.88
2022-07-29T12:13:09.959Z,101298.19
2022-07-29T12:15:45.731Z,101305.00
2022-07-29T12:18:15.660Z,101296.13
2022-07-29T12:20:42.452Z,101302.50
2022-07-29T12:23:10.100Z,101308.31
2022-07-29T12:25:38.169Z,101295.50
2022-07-29T12:28:03.077Z,101290.56
2022-07-29T12:30:41.583Z,101285.97
2022-07-29T12:33:14.552Z,101285.75
2022-07-29T12:35:38.425Z,101282.41
2022-07-29T12:38:02.165Z,101289.00
2022-07-29T12:40:26.912Z,101277.22
2022-07-29T12:43:12.349Z,101270.22
2022-07-29T12:45:36.396Z,101280.75
2022-07-29T12:48:01.576Z,101276.38
2022-07-29T12:50:26.652Z,101273.75
2022-07-29T12:52:50.697Z,101254.28
2022-07-29T12:55:14.588Z,101273.53
2022-07-29T12:57:49.032Z,101274.50
2022-07-29T13:00:15.239Z,101263.69
2022-07-29T13:02:39.871Z,101280.72
2022-07-29T13:05:07.288Z,101277.16
2022-07-29T13:07:54.656Z,101262.00
2022-07-29T13:10:20.435Z,101252.91
2022-07-29T13:13:10.572Z,101256.78
2022-07-29T13:15:35.218Z,101261.72
2022-07-29T13:17:59.016Z,101242.28
2022-07-29T13:20:28.483Z,101252.38
2022-07-29T13:22:52.333Z,101243.56
2022-07-29T13:25:17.067Z,101243.69
2022-07-29T13:27:41.676Z,101240.81
2022-07-29T13:30:09.438Z,101225.66
2022-07-29T13:32:35.427Z,101247.69
2022-07-29T13:35:05.293Z,101241.19
2022-07-29T13:37:31.670Z,101233.25
2022-07-29T13:39:56.932Z,101239.19
2022-07-29T13:42:21.009Z,101236.09
2022-07-29T13:44:44.784Z,101236.53
2022-07-29T13:47:09.832Z,101228.22
2022-07-29T13:49:33.627Z,101231.66
2022-07-29T13:51:57.472Z,101227.19
2022-07-29T13:54:22.882Z,101227.19
2022-07-29T13:56:47.033Z,101228.44
2022-07-29T13:59:10.776Z,101217.81
2022-07-29T14:01:37.010Z,101231.44
2022-07-29T14:04:00.814Z,101218.97
2022-07-29T14:06:24.741Z,101220.31
2022-07-29T14:08:49.246Z,101212.88
2022-07-29T14:11:14.787Z,101214.06
2022-07-29T14:13:38.666Z,101214.94
2022-07-29T14:16:02.422Z,101207.59
2022-07-29T14:18:26.197Z,101218.78
2022-07-29T14:20:50.536Z,101209.84
2022-07-29T14:23:16.210Z,101210.06
2022-07-29T14:25:40.205Z,101215.69
2022-07-29T14:28:08.096Z,101200.28
2022-07-29T14:30:31.878Z,101197.88
2022-07-29T14:32:55.656Z,101197.66
2022-07-29T14:35:19.361Z,101193.19
2022-07-29T14:37:43.124Z,101192.91
2022-07-29T14:40:08.523Z,101190.53
2022-07-29T14:42:32.695Z,101199.00
2022-07-29T14:44:57.802Z,101189.72
2022-07-29T14:47:22.860Z,101193.56
2022-07-29T14:49:46.649Z,101196.06
2022-07-29T14:52:10.401Z,101188.44
2022-07-29T14:54:34.140Z,101186.63
2022-07-29T14:56:58.572Z,101187.38
2022-07-29T14:59:22.652Z,101186.31
2022-07-29T15:01:47.781Z,101172.53
2022-07-29T15:04:11.535Z,101185.22
2022-07-29T15:06:35.273Z,101182.16
2022-07-29T15:08:58.991Z,101182.91
2022-07-29T15:11:22.781Z,101190.78
2022-07-29T15:13:46.452Z,101187.59
2022-07-29T15:16:10.252Z,101186.53
2022-07-29T15:18:36.156Z,101183.16
2022-07-29T15:21:01.505Z,101181.47
2022-07-29T15:23:25.235Z,101184.34
2022-07-29T15:25:49.085Z,101179.00
2022-07-29T15:28:12.914Z,101171.97
2022-07-29T15:30:41.817Z,101169.38
2022-07-29T15:33:05.997Z,101168.72
2022-07-29T15:35:31.388Z,101169.34
2022-07-29T15:37:55.084Z,101170.03
2022-07-29T15:40:18.972Z,101172.09
2022-07-29T15:42:42.707Z,101182.91
2022-07-29T15:45:07.803Z,101184.81
2022-07-29T15:47:31.713Z,101184.81
2022-07-29T15:49:55.465Z,101182.47
2022-07-29T15:52:25.788Z,101171.50
2022-07-29T15:54:50.111Z,101170.50
2022-07-29T15:57:13.876Z,101173.59
2022-07-29T15:59:37.654Z,101160.41
2022-07-29T16:02:02.247Z,101171.97
2022-07-29T16:04:26.199Z,101164.78
2022-07-29T16:06:50.935Z,101161.50
2022-07-29T16:09:16.883Z,101164.88
2022-07-29T16:11:40.879Z,101160.16
2022-07-29T16:14:05.115Z,101158.38
2022-07-29T16:16:28.856Z,101159.59
2022-07-29T16:18:52.959Z,101159.69
2022-07-29T16:21:16.840Z,101154.28
2022-07-29T16:23:40.804Z,101156.94
2022-07-29T16:26:05.971Z,101159.16
2022-07-29T16:28:30.379Z,101155.69
2022-07-29T16:30:54.067Z,101151.41
2022-07-29T16:33:17.825Z,101145.03
2022-07-29T16:35:41.521Z,101137.44
2022-07-29T16:38:05.325Z,101137.38
2022-07-29T16:40:28.995Z,101133.53
2022-07-29T16:42:54.209Z,101134.03
2022-07-29T16:45:21.305Z,101132.94
2022-07-29T16:47:45.307Z,101123.81
2022-07-29T16:50:10.716Z,101134.75
2022-07-29T16:52:34.527Z,101126.63
2022-07-29T16:54:58.248Z,101129.25
2022-07-29T16:57:22.048Z,101127.03
2022-07-29T16:59:47.311Z,101129.09
2022-07-29T17:02:12.091Z,101129.75
2022-07-29T17:04:36.384Z,101130.97
2022-07-29T17:07:01.084Z,101123.97
2022-07-29T17:09:25.598Z,101128.56
2022-07-29T17:11:55.093Z,101133.13
2022-07-29T17:14:19.180Z,101137.94
2022-07-29T17:16:51.563Z,101135.75
2022-07-29T17:19:24.785Z,101137.06
2022-07-29T17:21:49.320Z,101134.22
2022-07-29T17:24:13.108Z,101144.28
2022-07-29T17:26:36.891Z,101139.91
2022-07-29T17:29:00.773Z,101133.22
2022-07-29T17:31:24.939Z,101138.22
2022-07-29T17:33:50.165Z,101132.75
2022-07-29T17:36:26.890Z,101134.88
2022-07-29T17:38:51.156Z,101135.81
2022-07-29T17:41:15.524Z,101138.63
2022-07-29T17:43:39.313Z,101141.63
2022-07-29T17:46:03.486Z,101138.66
2022-07-29T17:48:27.251Z,101142.22
2022-07-29T17:50:52.614Z,101134.97
2022-07-29T17:53:16.968Z,101136.09
2022-07-29T17:55:40.725Z,101140.63
2022-07-29T17:58:04.500Z,101139.91
2022-07-29T18:00:28.489Z,101138.06
2022-07-29T18:02:52.643Z,101146.59
2022-07-29T18:05:16.451Z,101149.97
2022-07-29T18:07:41.664Z,101149.63
2022-07-29T18:10:06.387Z,101150.97
2022-07-29T18:12:30.173Z,101153.75
2022-07-29T18:14:54.108Z,101143.13
2022-07-29T18:17:18.480Z,101150.22
2022-07-29T18:19:42.205Z,101142.97
2022-07-29T18:22:07.476Z,101145.31
2022-07-29T18:24:32.612Z,101151.34
2022-07-29T18:26:56.916Z,101147.06
2022-07-29T18:29:20.916Z,101150.44
2022-07-29T18:31:44.799Z,101157.66
2022-07-29T18:34:08.531Z,101161.22
2022-07-29T18:36:32.307Z,101162.09
2022-07-29T18:38:55.996Z,101156.19
2022-07-29T18:41:21.196Z,101168.97
2022-07-29T18:43:45.520Z,101171.31
2022-07-29T18:46:09.363Z,101161.34
2022-07-29T18:48:34.280Z,101166.63
2022-07-29T18:50:58.067Z,101172.63
2022-07-29T18:53:21.858Z,101173.47
2022-07-29T18:55:45.824Z,101171.00
2022-07-29T18:58:11.052Z,101168.69
2022-07-29T19:00:35.491Z,101171.69
2022-07-29T19:02:59.322Z,101168.13
2022-07-29T19:05:24.194Z,101178.06
2022-07-29T19:07:47.939Z,101181.66
2022-07-29T19:10:12.378Z,101178.50
2022-07-29T19:12:36.116Z,101180.63
2022-07-29T19:15:01.293Z,101185.91
2022-07-29T19:17:25.008Z,101183.59
2022-07-29T19:19:50.993Z,101191.22
2022-07-29T19:22:14.812Z,101190.78
2022-07-29T19:24:38.600Z,101204.28
2022-07-29T19:27:02.440Z,101204.50
2022-07-29T19:29:26.768Z,101203.22
2022-07-29T19:31:51.994Z,101210.84
2022-07-29T19:34:15.781Z,101200.22
2022-07-29T19:36:39.606Z,101207.19
2022-07-29T19:39:03.573Z,101206.97
2022-07-29T19:41:27.333Z,101206.75
2022-07-29T19:43:53.050Z,101211.19
2022-07-29T19:46:17.042Z,101210.94
2022-07-29T19:48:42.304Z,101211.78
2022-07-29T19:51:06.119Z,101211.72
2022-07-29T19:53:29.860Z,101212.91
2022-07-29T19:55:53.761Z,101211.41
2022-07-29T19:58:17.510Z,101210.31
2022-07-29T20:00:42.400Z,101209.22
2022-07-29T20:03:07.488Z,101210.88
2022-07-29T20:05:33.209Z,101208.22
2022-07-29T20:07:57.271Z,101208.69
2022-07-29T20:10:21.056Z,101210.78
2022-07-29T20:12:44.964Z,101218.22
2022-07-29T20:15:16.262Z,101213.13
2022-07-29T20:17:40.674Z,101205.03
2022-07-29T20:20:05.453Z,101209.91
2022-07-29T20:22:30.561Z,101208.38
2022-07-29T20:24:54.280Z,101214.69
2022-07-29T20:27:18.918Z,101215.97
2022-07-29T20:29:42.630Z,101215.16
2022-07-29T20:32:07.189Z,101218.38
2022-07-29T20:34:30.950Z,101208.56
2022-07-29T20:36:54.672Z,101216.41
2022-07-29T20:39:21.060Z,101212.69
2022-07-29T20:41:44.903Z,101225.78
2022-07-29T20:44:08.616Z,101225.91
2022-07-29T20:46:32.689Z,101220.50
2022-07-29T20:48:56.543Z,101222.19
2022-07-29T20:51:20.431Z,101216.31
2022-07-29T20:53:44.204Z,101221.34
2022-07-29T20:56:09.876Z,101231.88
2022-07-29T20:58:34.131Z,101227.47
2022-07-29T21:00:57.865Z,101226.09
2022-07-29T21:03:21.643Z,101217.69
2022-07-29T21:05:45.496Z,101225.09
2022-07-29T21:08:09.240Z,101223.56
2022-07-29T21:10:33.028Z,101229.31
2022-07-29T21:12:58.256Z,101234.41
2022-07-29T21:15:22.049Z,101234.25
2022-07-29T21:17:48.068Z,101229.91
2022-07-29T21:20:13.487Z,101235.75
2022-07-29T21:22:37.201Z,101227.16
2022-07-29T21:25:01.000Z,101230.84
2022-07-29T21:27:42.200Z,101230.09
2022-07-29T21:30:09.564Z,101233.22
2022-07-29T21:32:33.315Z,101236.88
2022-07-29T21:34:57.213Z,101228.66
2022-07-29T21:37:20.932Z,101233.69
2022-07-29T21:39:44.657Z,101238.53
2022-07-29T21:42:08.827Z,101233.63
2022-07-29T21:44:32.579Z,101232.28
2022-07-29T21:46:57.957Z,101233.50
2022-07-29T21:49:21.908Z,101233.88
2022-07-29T21:51:45.652Z,101236.81
2022-07-29T21:54:09.604Z,101236.34
2022-07-29T21:56:33.951Z,101236.09
2022-07-29T21:58:59.484Z,101238.44
2022-07-29T22:01:23.889Z,101235.13
2022-07-29T22:03:49.123Z,101233.41
2022-07-29T22:06:17.297Z,101227.22
2022-07-29T22:08:45.537Z,101237.03
2022-07-29T22:11:09.312Z,101231.75
2022-07-29T22:13:33.168Z,101228.34
2022-07-29T22:16:00.612Z,101229.19
2022-07-29T22:18:24.364Z,101227.31
2022-07-29T22:20:50.090Z,101227.78
2022-07-29T22:23:13.861Z,101221.28
2022-07-29T22:25:37.569Z,101227.41
2022-07-29T22:28:01.404Z,101227.78
2022-07-29T22:30:25.151Z,101238.53
2022-07-29T22:32:49.690Z,101231.00
2022-07-29T22:35:13.547Z,101224.72
2022-07-29T22:37:39.192Z,101221.84
2022-07-29T22:40:03.037Z,101221.94
2022-07-29T22:42:26.795Z,101220.31
2022-07-29T22:44:50.467Z,101215.97
2022-07-29T22:47:14.216Z,101211.53
2022-07-29T22:49:37.899Z,101214.91
2022-07-29T22:52:01.701Z,101215.94
2022-07-29T22:54:27.076Z,101213.03
2022-07-29T22:56:50.929Z,101204.81
2022-07-29T22:59:14.705Z,101200.28
2022-07-29T23:01:38.586Z,101201.72
2022-07-29T23:04:02.562Z,101198.88
2022-07-29T23:06:26.397Z,101196.03
2022-07-29T23:08:50.136Z,101192.94
2022-07-29T23:11:15.417Z,101191.69
2022-07-29T23:13:39.121Z,101193.19
2022-07-29T23:16:03.255Z,101187.06
2022-07-29T23:18:27.069Z,101199.88
2022-07-29T23:20:50.807Z,101187.59
2022-07-29T23:23:14.564Z,101191.56
2022-07-29T23:25:38.460Z,101193.06
2022-07-29T23:28:03.908Z,101196.19
2022-07-29T23:30:29.493Z,101193.88
2022-07-29T23:32:53.297Z,101194.28
2022-07-29T23:35:17.089Z,101193.88
2022-07-29T23:37:40.889Z,101191.53
2022-07-29T23:40:05.119Z,101192.63
2022-07-29T23:42:28.936Z,101194.34
2022-07-29T23:44:54.205Z,101194.22
2022-07-29T23:47:18.077Z,101196.94
2022-07-29T23:49:41.852Z,101203.91
2022-07-29T23:52:06.272Z,101199.53
2022-07-29T23:54:30.142Z,101188.81
2022-07-29T23:56:53.822Z,101194.28
2022-07-29T23:59:17.515Z,101195.66
